Time;durP1;ratioP1;P1;durP2;ratioP2;P2;SDS_P1;SDS_P2;PMS_P1;PMS_P2;Temp;Humidity;BMP_temperature;BMP_pressure;BME280_temperature;BME280_humidity;BME280_pressure;Samples;Min_cycle;Max_cycle;Signal;HPM_P1;HPM_P2
2021/12/02 00:00:28;;;;;;;9.55;1.48;;;2.70;99.90;;;;;;4995277;28;20053;-86
2021/12/02 00:02:54;;;;;;;8.88;1.27;;;2.70;99.90;;;;;;4963202;28;20066;-88
2021/12/02 00:05:20;;;;;;;5.82;1.10;;;2.70;99.90;;;;;;4960827;28;20065;-88
2021/12/02 00:07:46;;;;;;;6.82;1.20;;;2.70;99.90;;;;;;4976417;28;20050;-87
2021/12/02 00:10:12;;;;;;;5.30;1.83;;;2.70;99.90;;;;;;4976712;28;20768;-87
2021/12/02 00:12:38;;;;;;;5.05;1.10;;;2.70;99.90;;;;;;4976220;28;20046;-88
2021/12/02 00:15:10;;;;;;;7.57;1.40;;;2.70;99.90;;;;;;4975781;28;20498;-88
2021/12/02 00:17:39;;;;;;;6.50;1.35;;;2.70;99.90;;;;;;4991564;28;20053;-87
2021/12/02 00:23:09;;;;;;;8.00;1.42;;;2.70;99.90;;;;;;5001396;28;20765;-87
2021/12/02 00:25:35;;;;;;;9.10;1.27;;;2.70;99.90;;;;;;4980456;28;20046;-88
2021/12/02 00:28:01;;;;;;;8.70;1.95;;;2.60;99.90;;;;;;5010345;28;20113;-87
2021/12/02 00:30:28;;;;;;;5.88;1.30;;;2.60;99.90;;;;;;4994482;28;20785;-88
2021/12/02 00:32:56;;;;;;;7.70;1.42;;;2.60;99.90;;;;;;5007965;28;20061;-87
2021/12/02 00:35:22;;;;;;;7.07;1.33;;;2.60;99.90;;;;;;4960254;28;20054;-87
2021/12/02 00:37:49;;;;;;;4.30;1.38;;;2.60;99.90;;;;;;4959860;28;20466;-86
2021/12/02 00:40:15;;;;;;;7.97;1.30;;;2.70;99.90;;;;;;4976022;28;20042;-87
2021/12/02 00:42:42;;;;;;;9.57;2.15;;;2.70;99.90;;;;;;4994480;28;20072;-87
2021/12/02 00:45:09;;;;;;;6.00;1.60;;;2.70;99.90;;;;;;4970541;28;20534;-87
2021/12/02 00:47:37;;;;;;;4.60;1.33;;;2.70;99.90;;;;;;4991163;28;20459;-87
2021/12/02 00:50:04;;;;;;;6.22;1.20;;;2.70;99.90;;;;;;4976425;28;20050;-88
2021/12/02 00:52:31;;;;;;;10.98;1.30;;;2.70;99.90;;;;;;5005551;28;20134;-87
2021/12/02 00:54:57;;;;;;;4.90;1.77;;;2.70;99.90;;;;;;4994003;28;20116;-88
2021/12/02 00:57:23;;;;;;;;;;;2.60;99.90;;;;;;4998452;28;20101;-87
2021/12/02 00:59:49;;;;;;;8.32;1.35;;;2.70;99.90;;;;;;4959156;28;19925;-87
2021/12/02 01:02:16;;;;;;;4.65;1.10;;;2.60;99.90;;;;;;4974676;28;20050;-88
2021/12/02 01:04:42;;;;;;;4.25;1.48;;;2.60;99.90;;;;;;4991835;28;20144;-87
2021/12/02 01:07:08;;;;;;;;;;;2.50;99.90;;;;;;4992687;28;20046;-88
2021/12/02 01:09:35;;;;;;;7.53;1.50;;;2.50;99.90;;;;;;4994173;28;19929;-85
2021/12/02 01:12:02;;;;;;;7.22;1.40;;;2.40;99.90;;;;;;4993062;28;20050;-88
2021/12/02 01:14:28;;;;;;;12.20;1.33;;;2.40;99.90;;;;;;4976719;28;20042;-87
2021/12/02 01:16:55;;;;;;;3.90;1.95;;;2.40;99.90;;;;;;4981170;28;20614;-88
2021/12/02 01:19:21;;;;;;;9.02;1.25;;;2.30;99.90;;;;;;4995567;28;20068;-87
2021/12/02 01:21:48;;;;;;;7.97;1.33;;;2.30;99.90;;;;;;4978397;28;20100;-87
2021/12/02 01:24:16;;;;;;;8.35;1.10;;;2.30;99.90;;;;;;4995818;28;20085;-87
2021/12/02 01:26:50;;;;;;;6.82;1.23;;;2.20;99.90;;;;;;4994405;28;20097;-88
2021/12/02 01:29:19;;;;;;;8.43;1.55;;;2.20;99.90;;;;;;5011338;28;20084;-86
2021/12/02 01:31:50;;;;;;;6.13;1.30;;;2.10;99.90;;;;;;5000456;28;20046;-88
2021/12/02 01:34:22;;;;;;;8.43;1.70;;;2.10;99.90;;;;;;4992358;28;20062;-87
2021/12/02 01:36:49;;;;;;;5.03;1.25;;;2.10;99.90;;;;;;4991798;28;20105;-87
2021/12/02 01:39:16;;;;;;;7.00;1.20;;;2.10;99.90;;;;;;4975992;28;20162;-87
2021/12/02 01:41:52;;;;;;;6.05;1.15;;;2.10;99.90;;;;;;4991265;28;20050;-86
2021/12/02 01:44:19;;;;;;;7.77;1.60;;;2.00;99.90;;;;;;5002404;28;20049;-88
2021/12/02 01:46:51;;;;;;;7.03;1.40;;;2.00;99.90;;;;;;5009218;28;20285;-87
2021/12/02 01:49:21;;;;;;;5.85;1.40;;;1.90;99.90;;;;;;5011304;28;20068;-88
2021/12/02 01:51:50;;;;;;;10.30;1.65;;;1.90;99.90;;;;;;4991629;28;20060;-87
2021/12/02 01:54:22;;;;;;;3.22;1.05;;;1.90;99.90;;;;;;5011384;28;20049;-87
2021/12/02 01:56:52;;;;;;;4.05;1.15;;;1.90;99.90;;;;;;5010996;28;20046;-87
2021/12/02 01:59:18;;;;;;;4.95;1.10;;;1.90;99.90;;;;;;5011239;28;20042;-87
2021/12/02 02:01:47;;;;;;;9.00;1.48;;;1.90;99.90;;;;;;5009767;28;20093;-87
2021/12/02 02:04:15;;;;;;;8.68;1.30;;;1.90;99.90;;;;;;5011098;28;20683;-87
2021/12/02 02:06:56;;;;;;;4.07;1.20;;;2.00;99.90;;;;;;4978590;28;20418;-87
2021/12/02 02:09:33;;;;;;;9.48;1.45;;;2.10;99.90;;;;;;5009412;28;20052;-88
2021/12/02 02:12:05;;;;;;;5.30;1.17;;;2.20;99.90;;;;;;4996609;28;20049;-87
2021/12/02 02:14:32;;;;;;;6.50;1.25;;;2.30;99.90;;;;;;5010071;28;20487;-88
2021/12/02 02:17:01;;;;;;;8.55;2.67;;;2.40;99.90;;;;;;4993647;28;20048;-88
2021/12/02 02:19:31;;;;;;;6.45;1.25;;;2.50;99.90;;;;;;4979730;28;20048;-87
2021/12/02 02:21:58;;;;;;;6.22;1.48;;;2.50;99.90;;;;;;4994814;28;20056;-88
2021/12/02 02:24:25;;;;;;;4.88;1.02;;;2.60;99.90;;;;;;4995528;28;20062;-87
2021/12/02 02:26:50;;;;;;;4.45;0.98;;;2.70;99.90;;;;;;5010817;28;20054;-87
2021/12/02 02:29:18;;;;;;;7.10;1.20;;;2.70;99.90;;;;;;4994673;28;20144;-86
2021/12/02 02:31:45;;;;;;;6.18;1.05;;;2.80;99.90;;;;;;5008308;28;20112;-87
2021/12/02 02:34:12;;;;;;;5.05;0.88;;;2.80;99.90;;;;;;4985639;28;20072;-87
2021/12/02 02:36:48;;;;;;;7.68;1.40;;;2.80;99.90;;;;;;5002564;28;20037;-86
2021/12/02 02:39:14;;;;;;;7.23;1.10;;;3.60;99.90;;;;;;4981488;28;20050;-84
2021/12/02 02:41:42;;;;;;;3.40;0.93;;;2.60;99.90;;;;;;4974604;28;20563;-85
2021/12/02 02:44:09;;;;;;;5.15;1.10;;;2.60;99.90;;;;;;4993781;28;20050;-85
2021/12/02 02:46:38;;;;;;;6.38;1.17;;;2.50;99.90;;;;;;4985842;28;20046;-85
2021/12/02 02:49:07;;;;;;;2.08;0.85;;;2.40;99.90;;;;;;4990656;28;20052;-85
2021/12/02 02:51:35;;;;;;;5.57;0.80;;;2.40;99.90;;;;;;4990169;28;20054;-85
2021/12/02 02:54:05;;;;;;;1.33;0.77;;;2.40;99.90;;;;;;4974090;28;20050;-86
2021/12/02 02:56:33;;;;;;;6.93;0.90;;;2.30;99.90;;;;;;4977359;28;20088;-85
2021/12/02 02:59:10;;;;;;;6.35;1.00;;;2.30;99.90;;;;;;4974230;28;20057;-85
2021/12/02 03:04:14;;;;;;;4.07;1.10;;;2.20;99.90;;;;;;5009442;28;20049;-85
2021/12/02 03:12:07;;;;;;;7.38;0.90;;;1.90;99.90;;;;;;5009292;28;20384;-85
2021/12/02 03:17:07;;;;;;;1.25;0.82;;;1.80;99.90;;;;;;4999360;28;20112;-86
2021/12/02 03:19:35;;;;;;;3.22;0.88;;;1.80;99.90;;;;;;4990293;28;20535;-86
2021/12/02 03:22:01;;;;;;;4.00;0.90;;;1.70;99.90;;;;;;4973787;28;20046;-85
2021/12/02 03:24:27;;;;;;;1.23;0.80;;;1.70;99.90;;;;;;4990627;28;20092;-85
2021/12/02 03:26:53;;;;;;;3.45;0.90;;;1.70;99.90;;;;;;4985992;28;20061;-85
2021/12/02 03:29:19;;;;;;;3.33;0.90;;;1.70;99.90;;;;;;4993715;28;20065;-85
2021/12/02 03:31:44;;;;;;;;;;;1.70;99.90;;;;;;4991617;28;20057;-86
2021/12/02 03:34:11;;;;;;;1.08;0.70;;;1.60;99.90;;;;;;4988304;28;20351;-86
2021/12/02 03:36:37;;;;;;;4.35;0.80;;;1.60;99.90;;;;;;4990393;28;20500;-85
2021/12/02 03:39:05;;;;;;;1.75;0.65;;;2.30;99.90;;;;;;4989378;28;20054;-85
2021/12/02 03:41:32;;;;;;;0.93;0.60;;;1.50;99.90;;;;;;4990017;28;20042;-85
2021/12/02 03:43:58;;;;;;;0.73;0.60;;;1.70;99.90;;;;;;4974139;28;20140;-85
2021/12/02 03:46:25;;;;;;;3.22;0.85;;;1.50;99.90;;;;;;4960329;28;20141;-85
2021/12/02 03:48:52;;;;;;;2.28;0.80;;;1.40;99.90;;;;;;4980102;28;20136;-85
2021/12/02 03:51:18;;;;;;;2.80;0.70;;;1.40;99.90;;;;;;5013207;28;20054;-85
2021/12/02 03:53:44;;;;;;;;;;;1.40;99.90;;;;;;4997362;28;20091;-85
2021/12/02 03:56:10;;;;;;;2.63;0.82;;;1.30;99.90;;;;;;4976266;28;20023;-85
2021/12/02 03:58:38;;;;;;;;;;;1.20;99.90;;;;;;4977352;28;20038;-86
2021/12/02 04:01:05;;;;;;;2.05;1.00;;;1.20;99.90;;;;;;4991281;28;20414;-85
2021/12/02 04:03:31;;;;;;;3.03;1.08;;;1.10;99.90;;;;;;4992876;28;20058;-85
2021/12/02 04:05:57;;;;;;;1.10;0.90;;;1.90;99.90;;;;;;4992013;28;20137;-85
2021/12/02 04:08:30;;;;;;;3.05;0.90;;;1.00;99.90;;;;;;4984737;28;20189;-85
2021/12/02 04:11:11;;;;;;;2.42;1.00;;;1.20;99.90;;;;;;4995946;28;20053;-86
2021/12/02 04:13:41;;;;;;;4.57;0.73;;;1.60;99.90;;;;;;5012615;28;20053;-85
2021/12/02 04:16:14;;;;;;;4.55;1.13;;;1.00;99.90;;;;;;4994285;28;20081;-86
2021/12/02 04:18:40;;;;;;;4.65;1.05;;;1.00;99.90;;;;;;4990891;28;20050;-85
2021/12/02 04:21:05;;;;;;;2.70;1.00;;;1.00;99.90;;;;;;4976608;28;20068;-85
2021/12/02 04:23:31;;;;;;;2.88;1.00;;;1.00;99.90;;;;;;4992868;28;20104;-85
2021/12/02 04:25:57;;;;;;;3.25;0.70;;;1.00;99.90;;;;;;4996397;28;20586;-85
2021/12/02 04:28:22;;;;;;;4.18;1.17;;;1.60;99.90;;;;;;4991677;28;20042;-86
2021/12/02 04:30:48;;;;;;;7.50;1.23;;;1.10;99.90;;;;;;4974999;28;20111;-87
2021/12/02 04:33:14;;;;;;;6.47;1.10;;;1.10;99.90;;;;;;4978734;28;20083;-85
2021/12/02 04:35:39;;;;;;;3.47;1.00;;;1.10;99.90;;;;;;5008330;28;20101;-85
2021/12/02 04:38:05;;;;;;;2.17;1.00;;;1.10;99.90;;;;;;4992374;28;20049;-85
2021/12/02 04:40:31;;;;;;;2.22;1.00;;;1.10;99.90;;;;;;4975221;28;20047;-85
2021/12/02 04:42:57;;;;;;;4.15;1.20;;;1.10;99.90;;;;;;4968646;28;20054;-85
2021/12/02 04:45:22;;;;;;;5.43;1.33;;;1.10;99.90;;;;;;4974930;28;20046;-85
2021/12/02 04:47:48;;;;;;;3.15;1.40;;;1.10;99.90;;;;;;4984033;28;20057;-86
2021/12/02 04:50:14;;;;;;;3.50;1.20;;;2.10;99.90;;;;;;4995168;28;20054;-85
2021/12/02 04:52:40;;;;;;;3.95;1.27;;;1.10;99.90;;;;;;4989882;28;20045;-85
2021/12/02 04:55:07;;;;;;;6.82;1.23;;;1.10;99.90;;;;;;4958427;28;20050;-85
2021/12/02 04:57:33;;;;;;;6.07;1.20;;;1.10;99.90;;;;;;4958857;28;20160;-85
2021/12/02 04:59:59;;;;;;;2.15;1.10;;;1.60;99.90;;;;;;4995690;28;20132;-86
2021/12/02 05:02:25;;;;;;;12.25;1.42;;;2.00;99.90;;;;;;4993890;28;20053;-86
2021/12/02 05:04:50;;;;;;;1.90;1.08;;;1.90;99.90;;;;;;5003882;28;20054;-87
2021/12/02 05:07:16;;;;;;;2.85;1.20;;;1.20;99.90;;;;;;4996023;28;20515;-86
2021/12/02 05:09:42;;;;;;;4.22;1.33;;;1.20;99.90;;;;;;4984941;28;20050;-85
2021/12/02 05:12:08;;;;;;;3.00;1.20;;;1.20;99.90;;;;;;4976523;28;20125;-86
2021/12/02 05:14:34;;;;;;;2.90;1.00;;;1.20;99.90;;;;;;4971625;28;20483;-86
2021/12/02 05:16:59;;;;;;;3.85;1.20;;;1.10;99.90;;;;;;5008609;28;20475;-86
2021/12/02 05:19:25;;;;;;;4.60;1.25;;;1.10;99.90;;;;;;4994413;28;20474;-86
2021/12/02 05:21:51;;;;;;;3.70;1.15;;;1.60;99.90;;;;;;4975547;28;20169;-86
2021/12/02 05:24:16;;;;;;;2.95;1.00;;;1.10;99.90;;;;;;5006683;28;20111;-86
2021/12/02 05:26:42;;;;;;;1.60;1.02;;;1.10;99.90;;;;;;4991093;28;20487;-86
2021/12/02 05:29:08;;;;;;;6.05;1.52;;;1.00;99.90;;;;;;4988271;28;20523;-86
2021/12/02 05:31:33;;;;;;;3.10;1.10;;;1.00;99.90;;;;;;4992956;28;20536;-86
2021/12/02 05:33:59;;;;;;;2.88;1.15;;;1.10;99.90;;;;;;5005438;28;20051;-86
2021/12/02 05:36:25;;;;;;;10.05;1.40;;;1.00;99.90;;;;;;4990896;28;20827;-86
2021/12/02 05:38:51;;;;;;;4.60;1.33;;;1.00;99.90;;;;;;4991126;28;20499;-86
2021/12/02 05:41:17;;;;;;;4.22;1.38;;;1.00;99.90;;;;;;4990137;28;20050;-86
2021/12/02 05:43:43;;;;;;;2.70;1.17;;;1.00;99.90;;;;;;4991783;28;20054;-85
2021/12/02 05:46:09;;;;;;;;;;;1.30;99.90;;;;;;4989835;28;20096;-85
2021/12/02 05:48:35;;;;;;;7.18;1.90;;;1.00;99.90;;;;;;4975332;28;19926;-85
2021/12/02 05:51:01;;;;;;;3.30;1.40;;;1.50;99.90;;;;;;4974118;28;20529;-85
2021/12/02 05:53:27;;;;;;;4.72;1.10;;;1.20;99.90;;;;;;4975117;28;20518;-86
2021/12/02 05:55:52;;;;;;;5.50;1.35;;;1.00;99.90;;;;;;4990325;28;20054;-85
2021/12/02 05:58:18;;;;;;;4.18;1.13;;;1.10;99.90;;;;;;4994585;28;20049;-85
2021/12/02 06:00:44;;;;;;;3.30;1.33;;;1.10;99.90;;;;;;4992919;28;20407;-85
2021/12/02 06:03:10;;;;;;;6.22;1.40;;;1.00;99.90;;;;;;4993407;28;20050;-86
2021/12/02 06:05:36;;;;;;;3.47;1.08;;;1.00;99.90;;;;;;4993915;28;20475;-85
2021/12/02 06:08:03;;;;;;;6.93;1.27;;;1.10;99.90;;;;;;4993161;28;20439;-86
2021/12/02 06:10:30;;;;;;;6.60;2.13;;;1.00;99.90;;;;;;4994146;28;20050;-86
2021/12/02 06:12:56;;;;;;;9.23;1.20;;;1.00;99.90;;;;;;4976343;28;20057;-84
2021/12/02 06:15:22;;;;;;;5.15;1.20;;;1.00;99.90;;;;;;4974018;28;20053;-86
2021/12/02 06:17:48;;;;;;;3.55;1.00;;;1.00;99.90;;;;;;4957993;28;20056;-86
2021/12/02 06:20:17;;;;;;;4.20;1.05;;;1.30;99.90;;;;;;5005226;28;20049;-85
2021/12/02 06:22:44;;;;;;;10.68;1.23;;;0.90;99.90;;;;;;5004899;28;20057;-86
2021/12/02 06:27:39;;;;;;;12.52;1.98;;;1.50;99.90;;;;;;4990402;28;20115;-86
2021/12/02 06:30:05;;;;;;;4.50;1.25;;;0.80;99.90;;;;;;4988652;28;20108;-85
2021/12/02 06:32:31;;;;;;;;;;;0.80;99.90;;;;;;4989651;28;20072;-86
2021/12/02 06:34:57;;;;;;;8.32;1.27;;;0.80;99.90;;;;;;4976343;28;19921;-86
2021/12/02 06:37:23;;;;;;;2.60;1.15;;;1.20;99.90;;;;;;4976271;28;20053;-86
2021/12/02 06:39:49;;;;;;;3.92;1.10;;;1.00;99.90;;;;;;4969974;28;20042;-86
2021/12/02 06:42:15;;;;;;;3.90;1.20;;;1.50;99.90;;;;;;4975578;28;20108;-85
2021/12/02 06:44:41;;;;;;;4.57;1.10;;;1.30;99.90;;;;;;4990543;28;20476;-85
2021/12/02 06:47:07;;;;;;;2.38;1.17;;;1.00;99.90;;;;;;4974431;28;20515;-86
2021/12/02 06:49:33;;;;;;;2.70;1.23;;;1.00;99.90;;;;;;4991005;28;20054;-87
2021/12/02 06:52:00;;;;;;;6.45;1.30;;;1.00;99.90;;;;;;4977300;28;20136;-86
2021/12/02 06:54:26;;;;;;;3.53;1.23;;;1.10;99.90;;;;;;4993446;28;20147;-87
2021/12/02 06:56:52;;;;;;;3.08;1.30;;;1.10;99.90;;;;;;4977320;28;20506;-87
2021/12/02 06:59:18;;;;;;;2.65;1.10;;;1.10;99.90;;;;;;4998512;28;20514;-86
2021/12/02 07:01:45;;;;;;;3.95;1.13;;;1.10;99.90;;;;;;4956798;28;20065;-87
2021/12/02 07:04:11;;;;;;;3.83;1.05;;;1.10;99.90;;;;;;4957625;28;20050;-86
2021/12/02 07:06:38;;;;;;;3.03;1.23;;;1.50;99.90;;;;;;4982229;28;20518;-86
2021/12/02 07:09:06;;;;;;;3.78;1.27;;;1.10;99.90;;;;;;4992746;28;20105;-87
2021/12/02 07:11:32;;;;;;;4.40;1.30;;;1.10;99.90;;;;;;4989961;28;20054;-86
2021/12/02 07:14:07;;;;;;;4.55;1.40;;;1.20;99.90;;;;;;4974256;28;20121;-87
2021/12/02 07:16:34;;;;;;;4.65;1.30;;;1.10;99.90;;;;;;4988257;28;20128;-87
2021/12/02 07:19:03;;;;;;;5.88;1.42;;;1.60;99.90;;;;;;4990702;28;20046;-87
2021/12/02 07:21:30;;;;;;;6.78;1.08;;;1.70;99.90;;;;;;4994198;28;20046;-86
2021/12/02 07:23:56;;;;;;;4.13;1.38;;;1.10;99.90;;;;;;4979448;28;20076;-86
2021/12/02 07:26:22;;;;;;;3.33;1.15;;;1.20;99.90;;;;;;5006271;28;20056;-83
2021/12/02 07:28:49;;;;;;;1.92;1.40;;;1.20;99.90;;;;;;4997260;28;20476;-89
2021/12/02 07:31:15;;;;;;;4.22;1.45;;;1.20;99.90;;;;;;4991131;28;20571;-88
2021/12/02 07:33:48;;;;;;;5.32;1.58;;;1.40;99.90;;;;;;4997223;28;20042;-88
2021/12/02 07:36:15;;;;;;;5.97;1.20;;;1.30;99.90;;;;;;5014038;28;20061;-88
2021/12/02 07:38:41;;;;;;;2.85;1.10;;;1.70;99.90;;;;;;5014608;28;20049;-89
2021/12/02 07:41:07;;;;;;;4.13;1.20;;;1.30;99.90;;;;;;4988291;28;20046;-88
2021/12/02 07:43:35;;;;;;;;;;;1.30;99.90;;;;;;4978948;28;20042;-88
2021/12/02 07:46:02;;;;;;;2.45;1.00;;;1.90;99.90;;;;;;4993166;28;19985;-89
2021/12/02 07:48:28;;;;;;;2.03;1.00;;;1.70;99.90;;;;;;4981322;28;20061;-86
2021/12/02 07:51:00;;;;;;;2.80;1.40;;;1.70;99.90;;;;;;5006759;28;20046;-88
2021/12/02 07:53:27;;;;;;;3.92;1.17;;;1.20;99.90;;;;;;5009888;28;20050;-88
2021/12/02 07:55:55;;;;;;;5.15;1.27;;;1.20;99.90;;;;;;5000082;28;20492;-87
2021/12/02 07:58:24;;;;;;;2.13;1.13;;;1.60;99.90;;;;;;4993712;28;20054;-88
2021/12/02 08:00:50;;;;;;;8.77;1.50;;;1.20;99.90;;;;;;4991904;28;20058;-87
2021/12/02 08:03:16;;;;;;;5.47;1.30;;;1.90;99.90;;;;;;4993425;28;20104;-88
2021/12/02 08:05:43;;;;;;;;;;;1.60;99.90;;;;;;4993702;28;20157;-88
2021/12/02 08:08:10;;;;;;;3.72;1.13;;;1.20;99.90;;;;;;4993190;28;19972;-88
2021/12/02 08:10:37;;;;;;;2.60;1.30;;;1.20;99.90;;;;;;4977101;28;20054;-88
2021/12/02 08:13:03;;;;;;;3.13;1.60;;;1.30;99.90;;;;;;4962654;28;20042;-87
2021/12/02 08:15:30;;;;;;;5.05;1.80;;;2.00;99.90;;;;;;4979380;28;20050;-87
2021/12/02 08:17:58;;;;;;;7.95;1.95;;;2.00;99.90;;;;;;4995749;28;20049;-88
2021/12/02 08:20:26;;;;;;;3.60;1.67;;;1.30;99.90;;;;;;5012623;28;20506;-88
2021/12/02 08:22:52;;;;;;;3.30;1.90;;;1.20;99.90;;;;;;4978988;28;20112;-88
2021/12/02 08:25:20;;;;;;;5.93;2.20;;;1.30;99.90;;;;;;4993147;28;20510;-87
2021/12/02 08:27:45;;;;;;;9.07;2.28;;;1.30;99.90;;;;;;4993276;28;20097;-88
2021/12/02 08:30:14;;;;;;;4.47;2.33;;;1.30;99.90;;;;;;4993948;28;20920;-88
2021/12/02 08:32:42;;;;;;;5.90;2.25;;;1.30;99.90;;;;;;5011425;28;20054;-88
2021/12/02 08:35:10;;;;;;;6.63;2.47;;;1.40;99.90;;;;;;5004578;28;20078;-87
2021/12/02 08:37:41;;;;;;;5.20;2.40;;;1.50;99.90;;;;;;4997423;28;20038;-88
2021/12/02 08:40:08;;;;;;;4.05;2.15;;;1.50;99.90;;;;;;5012074;28;20514;-88
2021/12/02 08:42:33;;;;;;;6.00;2.65;;;1.60;99.90;;;;;;4976829;28;20054;-88
2021/12/02 08:45:01;;;;;;;7.93;2.35;;;1.60;99.90;;;;;;4975919;28;20499;-89
2021/12/02 08:47:28;;;;;;;4.47;2.28;;;1.70;99.90;;;;;;4975625;28;20050;-88
2021/12/02 08:49:55;;;;;;;5.20;2.22;;;1.80;99.90;;;;;;4987899;28;20061;-89
2021/12/02 08:52:26;;;;;;;5.13;1.90;;;2.40;99.90;;;;;;5011965;28;20042;-89
2021/12/02 08:54:53;;;;;;;6.00;2.05;;;1.80;99.90;;;;;;4991906;28;20085;-88
2021/12/02 08:57:21;;;;;;;5.30;2.00;;;1.90;99.90;;;;;;4992609;28;20193;-88
2021/12/02 08:59:49;;;;;;;5.57;2.10;;;2.00;99.90;;;;;;4999928;28;20177;-87
2021/12/02 09:02:15;;;;;;;4.20;1.95;;;2.10;99.90;;;;;;4997741;28;20054;-88
2021/12/02 09:04:41;;;;;;;3.65;1.90;;;2.20;99.90;;;;;;4966273;28;20073;-89
2021/12/02 09:07:07;;;;;;;6.15;2.10;;;2.30;99.90;;;;;;4990655;28;20054;-88
2021/12/02 09:09:34;;;;;;;4.05;1.77;;;2.20;99.90;;;;;;4992903;28;20038;-89
2021/12/02 09:12:00;;;;;;;5.95;1.90;;;2.20;99.90;;;;;;4975990;28;20046;-89
2021/12/02 09:14:26;;;;;;;4.63;1.90;;;2.20;99.90;;;;;;4989163;28;20558;-89
2021/12/02 09:16:51;;;;;;;3.50;1.98;;;2.40;99.90;;;;;;4972665;28;20060;-89
2021/12/02 09:19:20;;;;;;;5.47;1.92;;;2.30;99.90;;;;;;4974979;28;20093;-89
2021/12/02 09:21:47;;;;;;;3.80;1.80;;;2.70;99.90;;;;;;4987581;28;20042;-89
2021/12/02 09:24:18;;;;;;;4.10;1.70;;;2.30;99.90;;;;;;5010866;28;20128;-88
2021/12/02 09:26:51;;;;;;;4.10;1.70;;;2.70;99.90;;;;;;5011794;28;20046;-88
2021/12/02 09:29:18;;;;;;;5.28;1.90;;;2.20;99.90;;;;;;4979080;28;20058;-88
2021/12/02 09:31:45;;;;;;;4.40;2.20;;;2.20;99.90;;;;;;4975344;28;20042;-89
2021/12/02 09:34:11;;;;;;;3.35;1.70;;;2.80;99.90;;;;;;4992891;28;20046;-88
2021/12/02 09:36:38;;;;;;;8.27;1.90;;;2.20;99.90;;;;;;4991723;28;20050;-89
2021/12/02 09:39:06;;;;;;;4.50;1.80;;;2.20;99.90;;;;;;4988057;28;20541;-88
2021/12/02 09:41:33;;;;;;;4.60;2.08;;;2.20;99.90;;;;;;4993241;28;20068;-89
2021/12/02 09:43:58;;;;;;;5.53;2.20;;;2.20;99.90;;;;;;5011792;28;20056;-89
2021/12/02 09:46:24;;;;;;;4.43;1.88;;;2.20;99.90;;;;;;4983869;28;20073;-84
2021/12/02 09:48:53;;;;;;;4.80;1.90;;;2.30;99.90;;;;;;5002736;28;20169;-87
2021/12/02 09:51:25;;;;;;;3.63;1.90;;;2.30;99.90;;;;;;4979829;28;20049;-88
2021/12/02 09:54:06;;;;;;;4.85;2.00;;;2.90;99.90;;;;;;4978440;28;20071;-85
2021/12/02 09:56:34;;;;;;;6.63;2.00;;;2.40;99.90;;;;;;4985119;28;20188;-89
2021/12/02 09:59:22;;;;;;;5.50;1.70;;;2.40;99.90;;;;;;4977970;28;20133;-86
2021/12/02 10:01:50;;;;;;;8.07;2.30;;;2.50;99.90;;;;;;4998211;28;20052;-81
2021/12/02 10:04:17;;;;;;;6.03;1.90;;;2.60;99.90;;;;;;4984504;28;20046;-87
2021/12/02 10:06:43;;;;;;;5.25;1.92;;;2.70;99.90;;;;;;4990377;28;20136;-88
2021/12/02 10:09:14;;;;;;;3.60;1.70;;;2.80;99.90;;;;;;4990904;28;20065;-86
2021/12/02 10:11:52;;;;;;;3.53;1.80;;;2.90;99.90;;;;;;4990075;28;20094;-87
2021/12/02 10:14:27;;;;;;;4.97;1.50;;;3.00;99.90;;;;;;4993082;28;20045;-86
2021/12/02 10:17:18;;;;;;;4.57;1.38;;;3.00;99.90;;;;;;5008271;28;20467;-88
2021/12/02 10:20:42;;;;;;;3.05;1.40;;;3.00;99.90;;;;;;5010119;28;20049;-86
2021/12/02 10:23:44;;;;;;;3.75;1.42;;;3.00;99.90;;;;;;5008302;28;20146;-88
2021/12/02 10:26:09;;;;;;;2.17;1.20;;;3.00;99.90;;;;;;4982824;28;20414;-87
2021/12/02 10:28:42;;;;;;;3.63;1.40;;;3.10;99.90;;;;;;4989861;28;20065;-87
2021/12/02 10:31:10;;;;;;;2.92;1.42;;;3.10;99.90;;;;;;5008283;28;20050;-87
2021/12/02 10:33:42;;;;;;;5.68;1.90;;;3.70;99.90;;;;;;5004181;28;20046;-87
2021/12/02 10:36:22;;;;;;;6.32;1.60;;;3.50;99.90;;;;;;4989895;28;20054;-87
2021/12/02 10:38:48;;;;;;;3.90;1.42;;;3.30;99.90;;;;;;4990181;28;20566;-87
2021/12/02 10:41:21;;;;;;;6.72;2.65;;;3.50;99.90;;;;;;4989006;28;20245;-87
2021/12/02 10:44:14;;;;;;;5.85;1.48;;;3.40;99.90;;;;;;4979034;28;20395;-88
2021/12/02 10:46:57;;;;;;;4.75;1.40;;;3.40;99.90;;;;;;5009471;28;20580;-88
2021/12/02 10:49:25;;;;;;;3.33;1.20;;;3.40;99.90;;;;;;4981775;28;20084;-88
2021/12/02 10:51:53;;;;;;;4.13;1.45;;;3.40;99.90;;;;;;4991535;28;20054;-90
2021/12/02 10:54:25;;;;;;;3.95;1.27;;;3.40;99.90;;;;;;4973966;28;20112;-89
2021/12/02 10:56:54;;;;;;;3.78;1.40;;;3.40;99.90;;;;;;4990554;28;20042;-89
2021/12/02 10:59:34;;;;;;;5.40;1.48;;;3.50;99.90;;;;;;4975756;28;20038;-88
2021/12/02 11:02:20;;;;;;;4.05;1.23;;;3.50;99.90;;;;;;4980947;28;20060;-90
2021/12/02 11:04:53;;;;;;;3.17;1.52;;;3.60;99.90;;;;;;4999641;28;20376;-88
2021/12/02 11:07:25;;;;;;;6.72;1.30;;;3.70;99.90;;;;;;4995649;28;20166;-89
2021/12/02 11:09:52;;;;;;;5.55;1.50;;;3.80;99.90;;;;;;4993586;28;20053;-88
2021/12/02 11:12:19;;;;;;;3.88;1.20;;;4.20;99.90;;;;;;4985668;28;20050;-89
2021/12/02 11:15:01;;;;;;;5.00;1.65;;;4.40;99.90;;;;;;5001826;28;20045;-90
2021/12/02 11:17:33;;;;;;;2.28;0.98;;;4.10;99.90;;;;;;5002161;28;20044;-89
2021/12/02 11:20:01;;;;;;;2.05;1.20;;;4.10;99.90;;;;;;4999477;28;20068;-90
2021/12/02 11:22:29;;;;;;;3.65;1.05;;;4.10;99.90;;;;;;4993844;28;20046;-89
2021/12/02 11:24:55;;;;;;;4.93;1.40;;;4.10;99.90;;;;;;4989424;28;20053;-88
2021/12/02 11:27:28;;;;;;;3.83;1.42;;;3.90;99.90;;;;;;4989633;28;20092;-90
2021/12/02 11:30:12;;;;;;;3.63;1.27;;;3.70;99.90;;;;;;5002598;28;20053;-88
2021/12/02 11:33:08;;;;;;;1.98;1.13;;;3.50;99.90;;;;;;5001516;28;20092;-88
2021/12/02 11:35:43;;;;;;;2.30;1.08;;;3.30;99.90;;;;;;5004325;28;20054;-88
2021/12/02 11:38:19;;;;;;;1.27;0.82;;;3.20;99.90;;;;;;4991704;28;20399;-88
2021/12/02 11:40:49;;;;;;;1.20;0.70;;;3.10;99.90;;;;;;4989229;28;20042;-89
2021/12/02 11:43:37;;;;;;;2.05;0.77;;;3.40;99.90;;;;;;4994183;28;20061;-89
2021/12/02 11:46:05;;;;;;;5.43;1.13;;;3.00;99.90;;;;;;5002150;28;20479;-89
2021/12/02 11:48:41;;;;;;;3.67;1.20;;;3.00;99.90;;;;;;4989819;28;20050;-90
2021/12/02 11:51:16;;;;;;;5.38;0.90;;;3.00;99.90;;;;;;4973342;28;20054;-88
2021/12/02 11:53:42;;;;;;;2.33;0.93;;;3.00;99.90;;;;;;4989814;28;20125;-87
2021/12/02 11:56:14;;;;;;;3.97;0.80;;;3.00;99.90;;;;;;4973160;28;20581;-88
2021/12/02 11:58:41;;;;;;;2.25;0.95;;;3.00;99.90;;;;;;4988901;28;20058;-88
2021/12/02 12:01:14;;;;;;;5.38;1.20;;;3.00;99.90;;;;;;4988273;28;20054;-88
2021/12/02 12:03:43;;;;;;;8.48;1.30;;;3.00;99.90;;;;;;4987044;28;20185;-88
2021/12/02 12:06:13;;;;;;;4.47;0.80;;;3.00;99.90;;;;;;4991536;28;20551;-87
2021/12/02 12:08:48;;;;;;;11.13;1.10;;;3.00;99.90;;;;;;5009007;28;20050;-88
2021/12/02 12:11:19;;;;;;;8.82;1.60;;;2.90;99.90;;;;;;4997506;28;20057;-88
2021/12/02 12:14:03;;;;;;;7.28;1.08;;;2.90;99.90;;;;;;4976014;28;20050;-88
2021/12/02 12:16:36;;;;;;;5.00;1.08;;;2.90;99.90;;;;;;5004243;28;20046;-88
2021/12/02 12:19:28;;;;;;;4.15;0.88;;;2.90;99.90;;;;;;4991281;28;20121;-88
2021/12/02 12:22:03;;;;;;;1.98;0.70;;;2.90;99.90;;;;;;4978439;28;20108;-87
2021/12/02 12:24:49;;;;;;;2.58;0.80;;;2.90;99.90;;;;;;4993093;28;20046;-88
2021/12/02 12:27:17;;;;;;;6.65;0.80;;;3.10;99.90;;;;;;5000386;28;20512;-88
2021/12/02 12:29:44;;;;;;;2.33;0.65;;;3.50;99.90;;;;;;4996397;28;20046;-83
2021/12/02 12:32:18;;;;;;;2.42;0.80;;;3.00;99.90;;;;;;4976695;28;20038;-87
2021/12/02 12:40:14;;;;;;;4.25;0.90;;;2.00;99.90;;;;;;4982455;28;20053;-87
2021/12/02 12:42:43;;;;;;;5.00;1.27;;;2.80;99.90;;;;;;5004276;28;20058;-86
2021/12/02 12:45:21;;;;;;;3.17;0.80;;;2.80;99.90;;;;;;4991155;28;20511;-88
2021/12/02 12:47:48;;;;;;;1.52;1.00;;;2.90;99.90;;;;;;4993352;28;20043;-87
2021/12/02 12:50:35;;;;;;;2.67;0.85;;;3.00;99.90;;;;;;5003101;28;20050;-87
2021/12/02 12:53:04;;;;;;;0.93;0.70;;;3.10;99.90;;;;;;5011771;28;20038;-88
2021/12/02 12:55:41;;;;;;;0.60;0.60;;;3.20;99.90;;;;;;4994770;28;20088;-87
2021/12/02 12:58:08;;;;;;;2.20;0.68;;;3.30;99.90;;;;;;4995182;28;20054;-85
2021/12/02 13:00:43;;;;;;;1.52;0.60;;;3.20;99.90;;;;;;5009903;28;20128;-82
2021/12/02 13:03:16;;;;;;;1.15;0.75;;;3.20;99.90;;;;;;5010936;28;20041;-85
2021/12/02 13:05:54;;;;;;;4.68;0.80;;;3.10;99.90;;;;;;5010301;28;20514;-85
2021/12/02 13:08:26;;;;;;;1.48;0.80;;;3.00;99.90;;;;;;5011413;28;20057;-85
2021/12/02 13:10:54;;;;;;;2.97;1.00;;;3.50;99.90;;;;;;4992193;28;20104;-85
2021/12/02 13:13:26;;;;;;;2.47;1.10;;;2.90;99.90;;;;;;4975398;28;20054;-85
2021/12/02 13:16:16;;;;;;;2.13;1.65;;;3.10;99.90;;;;;;4988989;28;20058;-85
2021/12/02 13:18:52;;;;;;;1.65;1.40;;;3.40;99.90;;;;;;4972076;28;20096;-84
2021/12/02 13:21:33;;;;;;;2.90;1.95;;;2.80;99.90;;;;;;4991612;28;20435;-84
2021/12/02 13:24:18;;;;;;;3.63;2.17;;;3.40;99.90;;;;;;4990556;28;20443;-84
2021/12/02 13:26:52;;;;;;;5.05;2.53;;;2.80;99.90;;;;;;4974282;28;20057;-85
2021/12/02 13:29:25;;;;;;;4.53;2.25;;;2.90;99.90;;;;;;4975468;28;20467;-85
2021/12/02 13:32:00;;;;;;;6.70;2.55;;;2.90;99.90;;;;;;4995335;28;20496;-85